createdAt,value
2018-04-22T00:00:40.252Z,12.25
2018-04-22T00:03:06.117Z,12.16
2018-04-22T00:05:32.696Z,12.16
2018-04-22T00:07:58.555Z,12.08
2018-04-22T00:10:24.413Z,12.04
2018-04-22T00:12:50.280Z,11.82
2018-04-22T00:15:16.128Z,11.64
2018-04-22T00:17:41.974Z,11.70
2018-04-22T00:20:07.815Z,11.78
2018-04-22T00:22:33.676Z,11.83
2018-04-22T00:24:59.518Z,11.77
2018-04-22T00:27:26.991Z,11.67
2018-04-22T00:29:52.850Z,11.70
2018-04-22T00:32:18.687Z,11.71
2018-04-22T00:34:44.547Z,11.62
2018-04-22T00:37:10.430Z,11.64
2018-04-22T00:39:36.265Z,11.63
2018-04-22T00:42:02.107Z,11.63
2018-04-22T00:44:27.946Z,11.66
2018-04-22T00:46:53.800Z,11.58
2018-04-22T00:49:19.695Z,11.57
2018-04-22T00:51:45.529Z,11.50
2018-04-22T00:54:21.400Z,11.49
2018-04-22T00:56:47.244Z,11.40
2018-04-22T00:59:13.113Z,11.33
2018-04-22T01:01:38.958Z,11.29
2018-04-22T01:04:04.839Z,11.22
2018-04-22T01:06:30.702Z,11.16
2018-04-22T01:08:56.540Z,11.23
2018-04-22T01:11:22.413Z,11.15
2018-04-22T01:13:48.279Z,11.10
2018-04-22T01:16:14.134Z,11.05
2018-04-22T01:18:39.970Z,10.97
2018-04-22T01:21:05.830Z,10.99
2018-04-22T01:23:31.684Z,11.00
2018-04-22T01:25:57.534Z,11.02
2018-04-22T01:28:23.388Z,10.98
2018-04-22T01:30:49.235Z,11.02
2018-04-22T01:33:15.088Z,10.94
2018-04-22T01:35:40.989Z,10.93
2018-04-22T01:38:06.874Z,10.85
2018-04-22T01:40:32.698Z,10.77
2018-04-22T01:42:58.540Z,10.79
2018-04-22T01:45:24.399Z,10.78
2018-04-22T01:47:50.270Z,10.77
2018-04-22T01:50:16.109Z,10.79
2018-04-22T01:52:41.962Z,10.77
2018-04-22T01:55:07.788Z,10.63
2018-04-22T01:57:33.623Z,10.66
2018-04-22T01:59:59.468Z,10.57
2018-04-22T02:02:25.319Z,10.58
2018-04-22T02:04:51.167Z,10.51
2018-04-22T02:07:16.998Z,10.58
2018-04-22T02:09:42.889Z,10.56
2018-04-22T02:12:08.756Z,10.58
2018-04-22T02:14:34.597Z,10.54
2018-04-22T02:17:00.442Z,10.53
2018-04-22T02:19:26.273Z,10.52
2018-04-22T02:21:52.097Z,10.55
2018-04-22T02:24:17.945Z,10.54
2018-04-22T02:26:43.799Z,10.40
2018-04-22T02:29:09.648Z,10.27
2018-04-22T02:31:35.519Z,10.30
2018-04-22T02:34:01.356Z,10.31
2018-04-22T02:36:27.208Z,10.32
2018-04-22T02:38:53.043Z,10.26
2018-04-22T02:41:18.907Z,10.23
2018-04-22T02:43:44.772Z,10.27
2018-04-22T02:46:10.618Z,10.26
2018-04-22T02:48:36.450Z,10.24
2018-04-22T02:51:02.303Z,10.22
2018-04-22T02:53:28.157Z,10.19
2018-04-22T02:55:54.088Z,10.13
2018-04-22T02:58:19.935Z,10.09
2018-04-22T03:00:45.783Z,10.05
2018-04-22T03:03:11.652Z,10.06
2018-04-22T03:05:37.487Z,10.02
2018-04-22T03:08:03.348Z,10.06
2018-04-22T03:10:29.196Z,9.96
2018-04-22T03:12:55.046Z,9.90
2018-04-22T03:15:20.895Z,9.95
2018-04-22T03:17:46.770Z,9.92
2018-04-22T03:20:12.615Z,9.93
2018-04-22T03:22:38.442Z,9.87
2018-04-22T03:25:04.286Z,9.80
2018-04-22T03:27:30.143Z,9.78
2018-04-22T03:29:56.012Z,9.78
2018-04-22T03:32:21.859Z,9.67
2018-04-22T03:34:47.723Z,9.57
2018-04-22T03:37:13.566Z,9.64
2018-04-22T03:39:39.422Z,9.64
2018-04-22T03:42:05.268Z,9.58
2018-04-22T03:44:31.131Z,9.62
2018-04-22T03:46:56.992Z,9.57
2018-04-22T03:49:22.867Z,9.53
2018-04-22T03:51:48.714Z,9.57
2018-04-22T03:54:14.678Z,9.49
2018-04-22T03:56:40.547Z,9.38
2018-04-22T03:59:06.382Z,9.35
2018-04-22T04:01:35.399Z,9.39
2018-04-22T04:04:01.231Z,9.42
2018-04-22T04:06:27.100Z,9.40
2018-04-22T04:08:52.954Z,9.43
2018-04-22T04:11:18.800Z,9.37
2018-04-22T04:13:44.622Z,9.31
2018-04-22T04:16:10.488Z,9.31
2018-04-22T04:22:02.427Z,9.35
2018-04-22T04:24:40.556Z,9.29
2018-04-22T04:30:04.275Z,9.36
2018-04-22T04:32:30.171Z,9.35
2018-04-22T04:34:56.040Z,9.38
2018-04-22T04:37:21.888Z,9.38
2018-04-22T04:39:47.753Z,9.41
2018-04-22T04:42:13.622Z,9.49
2018-04-22T04:44:39.470Z,9.53
2018-04-22T04:47:05.329Z,9.51
2018-04-22T04:49:31.190Z,9.56
2018-04-22T04:51:57.037Z,9.60
2018-04-22T04:54:22.963Z,9.58
2018-04-22T04:56:48.792Z,9.58
2018-04-22T04:59:14.654Z,9.51
2018-04-22T05:01:40.516Z,9.43
2018-04-22T05:04:06.380Z,9.60
2018-04-22T05:06:32.264Z,9.72
2018-04-22T05:08:58.109Z,9.72
2018-04-22T05:11:23.964Z,9.81
2018-04-22T05:13:49.783Z,9.84
2018-04-22T05:16:15.656Z,9.92
2018-04-22T05:18:41.568Z,9.98
2018-04-22T05:21:07.363Z,9.90
2018-04-22T05:23:33.230Z,9.99
2018-04-22T05:25:59.074Z,10.11
2018-04-22T05:28:24.929Z,10.23
2018-04-22T05:30:50.788Z,10.28
2018-04-22T05:33:16.662Z,10.34
2018-04-22T05:35:42.510Z,10.43
2018-04-22T05:38:08.352Z,10.53
2018-04-22T05:40:34.177Z,10.68
2018-04-22T05:43:00.046Z,10.72
2018-04-22T05:45:25.897Z,10.75
2018-04-22T05:47:51.749Z,10.80
2018-04-22T05:50:17.604Z,10.79
2018-04-22T05:52:43.458Z,10.88
2018-04-22T05:55:09.336Z,11.03
2018-04-22T05:57:35.196Z,11.16
2018-04-22T06:00:01.060Z,11.19
2018-04-22T06:02:26.907Z,11.41
2018-04-22T06:04:52.788Z,11.58
2018-04-22T06:07:18.648Z,11.63
2018-04-22T06:09:44.498Z,11.73
2018-04-22T06:12:10.337Z,11.77
2018-04-22T06:14:36.221Z,11.84
2018-04-22T06:17:02.067Z,11.86
2018-04-22T06:19:27.899Z,11.97
2018-04-22T06:21:53.771Z,12.00
2018-04-22T06:24:19.625Z,12.07
2018-04-22T06:26:45.465Z,12.06
2018-04-22T06:29:11.312Z,12.09
2018-04-22T06:31:37.213Z,12.22
2018-04-22T06:34:03.087Z,12.31
2018-04-22T06:36:28.937Z,12.45
2018-04-22T06:38:54.808Z,12.53
2018-04-22T06:41:20.664Z,12.58
2018-04-22T06:43:47.424Z,12.61
2018-04-22T06:46:13.326Z,12.73
2018-04-22T06:48:39.249Z,12.76
2018-04-22T06:51:05.124Z,12.88
2018-04-22T06:53:31.124Z,13.03
2018-04-22T06:55:56.959Z,13.13
2018-04-22T06:58:22.834Z,13.10
2018-04-22T07:00:48.694Z,13.22
2018-04-22T07:03:14.559Z,13.26
2018-04-22T07:05:40.461Z,13.39
2018-04-22T07:08:06.344Z,13.45
2018-04-22T07:10:32.223Z,13.56
2018-04-22T07:12:58.069Z,13.62
2018-04-22T07:15:23.910Z,13.75
2018-04-22T07:17:49.771Z,13.85
2018-04-22T07:20:15.619Z,13.87
2018-04-22T07:22:41.487Z,13.93
2018-04-22T07:25:07.409Z,14.08
2018-04-22T07:27:33.272Z,14.18
2018-04-22T07:29:59.168Z,14.23
2018-04-22T07:32:25.051Z,14.40
2018-04-22T07:34:50.927Z,14.71
2018-04-22T07:37:16.841Z,14.85
2018-04-22T07:39:42.684Z,14.83
2018-04-22T07:42:08.575Z,14.98
2018-04-22T07:44:34.440Z,15.13
2018-04-22T07:47:00.316Z,15.21
2018-04-22T07:49:26.197Z,15.41
2018-04-22T07:51:52.068Z,15.63
2018-04-22T07:54:17.940Z,15.67
2018-04-22T07:56:43.828Z,15.83
2018-04-22T07:59:09.683Z,15.84
2018-04-22T08:01:35.997Z,16.08
2018-04-22T08:04:01.859Z,16.14
2018-04-22T08:06:27.722Z,16.29
2018-04-22T08:08:53.624Z,16.44
2018-04-22T08:11:19.479Z,16.49
2018-04-22T08:13:45.359Z,16.65
2018-04-22T08:16:12.220Z,16.85
2018-04-22T08:18:38.083Z,16.90
2018-04-22T08:21:03.948Z,17.03
2018-04-22T08:23:29.801Z,17.03
2018-04-22T08:25:55.649Z,17.10
2018-04-22T08:28:21.545Z,17.08
2018-04-22T08:30:47.415Z,17.07
2018-04-22T08:33:13.296Z,17.23
2018-04-22T08:35:39.161Z,17.33
2018-04-22T08:38:05.047Z,17.38
2018-04-22T08:40:30.939Z,17.52
2018-04-22T08:42:56.810Z,17.59
2018-04-22T08:45:22.690Z,17.65
2018-04-22T08:47:48.559Z,17.75
2018-04-22T08:50:14.416Z,17.83
2018-04-22T08:52:40.281Z,17.98
2018-04-22T08:55:06.141Z,18.13
2018-04-22T08:57:31.994Z,18.20
2018-04-22T08:59:57.890Z,18.22
2018-04-22T09:02:23.739Z,18.30
2018-04-22T09:04:49.617Z,18.46
2018-04-22T09:07:15.462Z,18.61
2018-04-22T09:09:41.313Z,18.54
2018-04-22T09:12:07.186Z,18.59
2018-04-22T09:14:33.039Z,18.71
2018-04-22T09:16:58.864Z,18.86
2018-04-22T09:19:24.746Z,19.17
2018-04-22T09:21:50.622Z,19.40
2018-04-22T09:24:16.467Z,19.53
2018-04-22T09:26:42.344Z,19.56
2018-04-22T09:29:08.222Z,19.61
2018-04-22T09:31:34.094Z,19.62
2018-04-22T09:33:59.963Z,19.69
2018-04-22T09:36:25.837Z,19.69
2018-04-22T09:38:51.686Z,19.68
2018-04-22T09:41:17.604Z,19.71
2018-04-22T09:43:43.476Z,19.69
2018-04-22T09:46:09.348Z,19.67
2018-04-22T09:48:35.640Z,19.63
2018-04-22T09:51:01.531Z,19.69
2018-04-22T09:53:27.480Z,19.73
2018-04-22T09:55:53.293Z,19.62
2018-04-22T09:58:19.194Z,19.62
2018-04-22T10:00:46.014Z,19.67
2018-04-22T10:03:11.911Z,19.82
2018-04-22T10:05:44.000Z,19.97
2018-04-22T10:08:09.891Z,20.10
2018-04-22T10:10:35.723Z,20.31
2018-04-22T10:13:01.592Z,20.47
2018-04-22T10:15:27.468Z,20.51
2018-04-22T10:17:53.319Z,20.45
2018-04-22T10:20:19.173Z,20.30
2018-04-22T10:22:45.068Z,20.38
2018-04-22T10:25:10.932Z,20.56
2018-04-22T10:27:36.782Z,20.81
2018-04-22T10:30:02.667Z,21.18
2018-04-22T10:32:28.542Z,21.19
2018-04-22T10:34:54.445Z,21.20
2018-04-22T10:37:20.357Z,21.07
2018-04-22T10:39:46.207Z,20.97
2018-04-22T10:42:12.082Z,21.07
2018-04-22T10:44:37.961Z,21.13
2018-04-22T10:47:03.859Z,21.07
2018-04-22T10:49:29.851Z,21.00
2018-04-22T10:51:55.740Z,20.97
2018-04-22T10:54:21.589Z,21.07
2018-04-22T10:56:47.458Z,21.16
2018-04-22T10:59:13.374Z,21.11
2018-04-22T11:01:39.199Z,21.11
2018-04-22T11:04:05.064Z,21.25
2018-04-22T11:06:30.915Z,21.67
2018-04-22T11:08:56.772Z,22.33
2018-04-22T11:11:22.655Z,22.78
2018-04-22T11:13:48.541Z,22.48
2018-04-22T11:16:14.376Z,22.19
2018-04-22T11:18:40.243Z,21.75
2018-04-22T11:21:06.134Z,21.41
2018-04-22T11:23:31.997Z,21.40
2018-04-22T11:25:57.860Z,21.71
2018-04-22T11:28:23.689Z,22.58
2018-04-22T11:30:49.621Z,22.96
2018-04-22T11:33:15.532Z,23.39
2018-04-22T11:35:41.408Z,23.71
2018-04-22T11:38:07.294Z,24.25
2018-04-22T11:40:33.184Z,24.25
2018-04-22T11:42:59.062Z,24.41
2018-04-22T11:45:24.913Z,24.89
2018-04-22T11:47:50.782Z,25.23
2018-04-22T11:50:16.649Z,25.68
2018-04-22T11:52:43.351Z,25.92
2018-04-22T11:55:09.215Z,26.12
2018-04-22T11:57:35.113Z,26.29
2018-04-22T12:00:01.078Z,25.91
2018-04-22T12:02:26.995Z,25.22
2018-04-22T12:04:52.866Z,25.59
2018-04-22T12:07:18.768Z,26.42
2018-04-22T12:09:44.644Z,26.92
2018-04-22T12:12:10.539Z,27.08
2018-04-22T12:14:36.451Z,27.27
2018-04-22T12:17:02.318Z,27.29
2018-04-22T12:19:28.204Z,27.71
2018-04-22T12:21:54.077Z,27.52
2018-04-22T12:24:19.940Z,28.10
2018-04-22T12:26:45.831Z,28.15
2018-04-22T12:29:11.796Z,28.24
2018-04-22T12:31:37.672Z,28.77
2018-04-22T12:34:03.545Z,28.34
2018-04-22T12:36:29.394Z,28.89
2018-04-22T12:38:55.285Z,28.61
2018-04-22T12:41:21.153Z,28.54
2018-04-22T12:43:47.036Z,28.77
2018-04-22T12:46:12.901Z,28.95
2018-04-22T12:48:38.763Z,28.92
2018-04-22T12:51:04.682Z,28.80
2018-04-22T12:53:30.556Z,29.31
2018-04-22T12:55:57.153Z,29.29
2018-04-22T12:58:23.027Z,29.22
2018-04-22T13:00:48.901Z,29.47
2018-04-22T13:03:14.800Z,29.48
2018-04-22T13:05:40.678Z,29.37
2018-04-22T13:08:06.546Z,28.84
2018-04-22T13:10:32.440Z,29.20
2018-04-22T13:12:58.373Z,29.29
2018-04-22T13:15:24.247Z,29.13
2018-04-22T13:17:50.081Z,29.10
2018-04-22T13:20:15.955Z,29.18
2018-04-22T13:22:41.821Z,28.85
2018-04-22T13:25:07.698Z,28.95
2018-04-22T13:27:33.582Z,29.54
2018-04-22T13:29:59.459Z,29.53
2018-04-22T13:32:25.363Z,29.67
2018-04-22T13:34:51.238Z,29.44
2018-04-22T13:37:17.168Z,29.13
2018-04-22T13:39:43.025Z,28.48
2018-04-22T13:42:08.892Z,28.64
2018-04-22T13:44:34.763Z,28.57
2018-04-22T13:47:00.653Z,28.66
2018-04-22T13:49:26.522Z,28.55
2018-04-22T13:51:52.418Z,28.64
2018-04-22T13:54:18.285Z,28.18
2018-04-22T13:56:44.185Z,28.06
2018-04-22T13:59:10.020Z,27.94
2018-04-22T14:01:35.889Z,28.19
2018-04-22T14:04:01.837Z,28.31
2018-04-22T14:06:27.735Z,28.73
2018-04-22T14:08:53.595Z,28.99
2018-04-22T14:11:20.055Z,28.49
2018-04-22T14:13:46.454Z,28.68
2018-04-22T14:16:12.277Z,28.55
2018-04-22T14:18:38.155Z,27.94
2018-04-22T14:21:04.015Z,27.71
2018-04-22T14:23:29.896Z,27.88
2018-04-22T14:25:55.782Z,27.62
2018-04-22T14:28:21.640Z,27.30
2018-04-22T14:30:47.526Z,27.46
2018-04-22T14:33:13.428Z,28.25
2018-04-22T14:35:39.304Z,28.68
2018-04-22T14:38:05.216Z,28.57
2018-04-22T14:40:31.104Z,28.24
2018-04-22T14:42:56.988Z,28.18
2018-04-22T14:45:35.322Z,28.07
2018-04-22T14:48:01.186Z,28.11
2018-04-22T14:50:27.104Z,28.55
2018-04-22T14:52:52.986Z,28.79
2018-04-22T14:55:19.475Z,29.23
2018-04-22T14:57:45.391Z,29.26
2018-04-22T15:00:11.300Z,29.31
2018-04-22T15:02:37.318Z,29.34
2018-04-22T15:05:03.191Z,29.46
2018-04-22T15:07:29.068Z,29.75
2018-04-22T15:09:54.978Z,29.77
2018-04-22T15:12:20.853Z,29.67
2018-04-22T15:14:46.740Z,29.36
2018-04-22T15:17:12.608Z,29.58
2018-04-22T15:19:38.483Z,29.69
2018-04-22T15:22:04.372Z,28.87
2018-04-22T15:24:30.226Z,28.77
2018-04-22T15:26:56.093Z,29.21
2018-04-22T15:29:22.017Z,29.57
2018-04-22T15:31:47.953Z,29.71
2018-04-22T15:34:13.826Z,29.81
2018-04-22T15:36:39.678Z,29.88
2018-04-22T15:39:05.676Z,29.66
2018-04-22T15:41:31.499Z,29.72
2018-04-22T15:43:57.401Z,29.99
2018-04-22T15:46:23.282Z,29.92
2018-04-22T15:48:49.148Z,29.44
2018-04-22T15:51:15.044Z,28.64
2018-04-22T15:53:40.921Z,28.49
2018-04-22T15:56:06.799Z,28.83
2018-04-22T15:58:32.665Z,29.01
2018-04-22T16:00:58.533Z,28.86
2018-04-22T16:03:24.464Z,28.76
2018-04-22T16:05:50.412Z,28.81
2018-04-22T16:08:16.326Z,28.84
2018-04-22T16:10:42.165Z,28.57
2018-04-22T16:13:08.058Z,28.78
2018-04-22T16:15:33.957Z,28.42
2018-04-22T16:17:59.786Z,28.71
2018-04-22T16:20:25.670Z,29.20
2018-04-22T16:22:51.552Z,29.67
2018-04-22T16:25:17.475Z,29.66
2018-04-22T16:27:46.464Z,30.10
2018-04-22T16:30:12.410Z,29.91
2018-04-22T16:32:38.657Z,29.70
2018-04-22T16:35:04.573Z,29.73
2018-04-22T16:37:30.452Z,29.63
2018-04-22T16:39:56.347Z,28.96
2018-04-22T16:42:22.245Z,27.99
2018-04-22T16:44:48.142Z,27.23
2018-04-22T16:47:14.035Z,26.71
2018-04-22T16:49:39.960Z,26.39
2018-04-22T16:52:05.860Z,26.21
2018-04-22T16:54:31.829Z,25.91
2018-04-22T16:56:57.754Z,25.74
2018-04-22T16:59:23.667Z,25.58
2018-04-22T17:01:49.572Z,25.36
2018-04-22T17:04:15.408Z,25.11
2018-04-22T17:06:41.308Z,24.88
2018-04-22T17:09:07.179Z,24.71
2018-04-22T17:11:33.035Z,24.49
2018-04-22T17:13:58.929Z,24.69
2018-04-22T17:16:24.866Z,24.54
2018-04-22T17:18:51.432Z,24.62
2018-04-22T17:21:17.364Z,24.48
2018-04-22T17:23:43.305Z,24.55
2018-04-22T17:26:09.253Z,24.52
2018-04-22T17:28:36.026Z,24.41
2018-04-22T17:31:01.985Z,24.38
2018-04-22T17:33:27.837Z,24.32
2018-04-22T17:35:53.780Z,24.22
2018-04-22T17:38:19.678Z,24.12
2018-04-22T17:40:45.650Z,24.07
2018-04-22T17:43:11.593Z,23.93
2018-04-22T17:45:37.520Z,23.84
2018-04-22T17:48:03.452Z,23.72
2018-04-22T17:50:29.340Z,23.46
2018-04-22T17:52:55.210Z,23.44
2018-04-22T17:55:21.139Z,23.44
2018-04-22T17:57:47.169Z,23.41
2018-04-22T18:00:13.110Z,23.41
2018-04-22T18:02:39.820Z,23.33
2018-04-22T18:05:05.702Z,23.32
2018-04-22T18:07:31.611Z,22.96
2018-04-22T18:09:57.501Z,22.37
2018-04-22T18:12:23.393Z,21.89
2018-04-22T18:14:49.258Z,21.58
2018-04-22T18:17:15.185Z,21.55
2018-04-22T18:19:41.035Z,21.32
2018-04-22T18:22:07.461Z,20.95
2018-04-22T18:24:33.421Z,19.83
2018-04-22T18:26:59.357Z,19.29
2018-04-22T18:29:25.269Z,18.93
2018-04-22T18:31:54.114Z,18.46
2018-04-22T18:34:20.074Z,17.74
2018-04-22T18:36:46.877Z,17.61
2018-04-22T18:39:12.784Z,17.45
2018-04-22T18:41:38.734Z,17.44
2018-04-22T18:44:05.584Z,17.50
2018-04-22T18:46:32.039Z,17.56
2018-04-22T18:48:59.408Z,17.67
2018-04-22T18:51:25.411Z,17.70
2018-04-22T18:53:51.384Z,17.76
2018-04-22T18:56:17.274Z,17.73
2018-04-22T18:58:43.468Z,17.74
2018-04-22T19:01:09.374Z,17.82
2018-04-22T19:03:35.239Z,17.87
2018-04-22T19:06:01.214Z,17.77
2018-04-22T19:08:27.179Z,17.76
2018-04-22T19:10:53.117Z,17.79
2018-04-22T19:13:19.137Z,17.80
2018-04-22T19:15:45.033Z,17.87
2018-04-22T19:18:10.885Z,17.85
2018-04-22T19:20:37.429Z,17.78
2018-04-22T19:23:03.456Z,17.81
2018-04-22T19:25:30.330Z,17.87
2018-04-22T19:27:56.315Z,17.90
2018-04-22T19:30:22.309Z,17.78
2018-04-22T19:32:49.239Z,17.81
2018-04-22T19:35:15.851Z,17.64
2018-04-22T19:37:41.775Z,17.53
2018-04-22T19:40:07.934Z,17.53
2018-04-22T19:42:34.921Z,17.44
2018-04-22T19:45:00.905Z,17.40
2018-04-22T19:47:27.568Z,17.39
2018-04-22T19:49:54.185Z,17.35
2018-04-22T19:52:20.817Z,17.33
2018-04-22T19:54:46.792Z,17.31
2018-04-22T19:57:12.656Z,17.35
2018-04-22T19:59:40.305Z,17.38
2018-04-22T20:02:06.256Z,17.33
2018-04-22T20:04:32.151Z,17.33
2018-04-22T20:06:59.566Z,17.35
2018-04-22T20:09:25.550Z,17.37
2018-04-22T20:11:52.345Z,17.29
2018-04-22T20:14:18.391Z,17.28
2018-04-22T20:16:44.356Z,17.26
2018-04-22T20:19:10.234Z,17.33
2018-04-22T20:21:36.090Z,17.27
2018-04-22T20:24:01.965Z,17.24
2018-04-22T20:26:27.998Z,17.22
2018-04-22T20:28:53.930Z,17.15
2018-04-22T20:31:20.810Z,17.11
2018-04-22T20:33:46.731Z,17.09
2018-04-22T20:36:12.578Z,17.09
2018-04-22T20:38:38.493Z,17.15
2018-04-22T20:41:04.395Z,17.11
2018-04-22T20:43:30.299Z,17.18
2018-04-22T20:45:56.200Z,17.15
2018-04-22T20:48:22.155Z,17.19
2018-04-22T20:50:48.069Z,17.11
2018-04-22T20:53:13.974Z,17.10
2018-04-22T20:55:39.856Z,17.17
2018-04-22T20:58:05.749Z,17.17
2018-04-22T21:00:31.615Z,17.12
2018-04-22T21:02:57.545Z,17.10
2018-04-22T21:05:23.419Z,17.05
2018-04-22T21:07:49.277Z,17.13
2018-04-22T21:10:15.178Z,17.11
2018-04-22T21:12:41.029Z,17.08
2018-04-22T21:15:06.896Z,17.02
2018-04-22T21:17:32.749Z,17.00
2018-04-22T21:19:58.599Z,17.03
2018-04-22T21:22:24.464Z,17.03
2018-04-22T21:24:50.319Z,17.02
2018-04-22T21:27:16.187Z,17.08
2018-04-22T21:29:42.044Z,17.11
2018-04-22T21:32:07.907Z,17.08
2018-04-22T21:34:33.755Z,17.05
2018-04-22T21:36:59.848Z,17.08
2018-04-22T21:39:25.686Z,17.07
2018-04-22T21:41:51.538Z,17.09
2018-04-22T21:44:17.387Z,17.09
2018-04-22T21:46:43.235Z,17.11
2018-04-22T21:49:09.086Z,17.09
2018-04-22T21:51:34.944Z,17.07
2018-04-22T21:54:00.802Z,17.10
2018-04-22T21:56:26.718Z,17.03
2018-04-22T21:58:52.599Z,17.01
2018-04-22T22:01:18.445Z,17.03
2018-04-22T22:03:44.320Z,17.05
2018-04-22T22:06:10.149Z,17.06
2018-04-22T22:08:36.011Z,17.03
2018-04-22T22:11:01.848Z,17.02
2018-04-22T22:13:27.702Z,17.01
2018-04-22T22:15:53.529Z,17.00
2018-04-22T22:18:19.380Z,16.96
2018-04-22T22:20:45.227Z,16.91
2018-04-22T22:23:11.083Z,16.88
2018-04-22T22:25:36.936Z,16.81
2018-04-22T22:28:02.799Z,16.73
2018-04-22T22:30:28.663Z,16.58
2018-04-22T22:32:55.343Z,16.47
2018-04-22T22:35:21.210Z,16.36
2018-04-22T22:37:47.049Z,16.37
2018-04-22T22:40:12.921Z,16.34
2018-04-22T22:42:38.752Z,16.38
2018-04-22T22:45:04.603Z,16.25
2018-04-22T22:47:31.077Z,16.25
2018-04-22T22:49:56.936Z,16.19
2018-04-22T22:52:22.801Z,16.09
2018-04-22T22:54:48.619Z,16.04
2018-04-22T22:57:14.470Z,15.97
2018-04-22T22:59:40.321Z,16.14
2018-04-22T23:02:06.175Z,16.24
2018-04-22T23:04:32.022Z,16.28
2018-04-22T23:06:57.858Z,16.22
2018-04-22T23:09:23.705Z,16.25
2018-04-22T23:11:49.550Z,16.25
2018-04-22T23:14:15.384Z,16.22
2018-04-22T23:16:41.226Z,16.05
2018-04-22T23:19:07.072Z,15.97
2018-04-22T23:21:32.923Z,15.90
2018-04-22T23:23:58.783Z,15.78
2018-04-22T23:26:24.613Z,15.71
2018-04-22T23:28:50.474Z,15.66
2018-04-22T23:31:16.337Z,15.57
2018-04-22T23:33:42.183Z,15.59
2018-04-22T23:36:08.034Z,15.48
2018-04-22T23:38:33.885Z,15.43
2018-04-22T23:40:59.763Z,15.39
2018-04-22T23:43:25.601Z,15.38
2018-04-22T23:45:51.455Z,15.40
2018-04-22T23:48:17.291Z,15.34
2018-04-22T23:50:43.153Z,15.43
2018-04-22T23:53:08.979Z,15.37
2018-04-22T23:55:34.839Z,15.31
2018-04-22T23:58:00.666Z,15.42
